Bay City, TX

12:04 AM CDT on August 31, 2014 (GMT -0500)
Palacios Municipal | Change Station
CLOSE
Current Station
Airport
Location: Palacios,
Elevation: 16 ft
Nearby Weather Stations

Elev 16 ft 28.73 °N, 96.25 °W | Updated 11 minutes ago

Mostly Cloudy
Mostly Cloudy
81 °F
Feels Like 87 °F
N
8
Wind Variable Wind from SSE

Today
High -- | Low -- °F
--% Chance of Precip.
Yesterday
High -- | Low -- °F
Precip. -- in
7:01 AM 7:46 PM
Waxing Crescent, 27% visible
Pressure 29.96 in
Visibility 10.0 miles
Clouds Mostly Cloudy 1900 ft
Heat Index 87 °F
Dew Point 76 °F
Humidity 85%
Rainfall 0.00 in
Snow Depth Not available.
UV 0 out of 12
Pollen 5.90 out of 12
Air Quality Not available.
Flu Activity Not available.
METAR KPSX 310453Z AUTO 16007KT 10SM BKN019 27/24 A2996 RMK AO2 SLP144 T02720244

More Conditions Fewer Conditions

Pressure 29.96 in
Visibility 10.0 miles
Clouds Mostly Cloudy 1900 ft
Heat Index 87 °F
Dew Point 76 °F
Humidity 85%
Rainfall 0.00 in
Snow Depth Not available.
UV 0 out of 12
Pollen 5.90 out of 12
Air Quality Not available.
Flu Activity Not available.
METAR KPSX 310453Z AUTO 16007KT 10SM BKN019 27/24 A2996 RMK AO2 SLP144 T02720244

More Conditions Fewer Conditions

10-Day Weather Forecast

Almanac

Astronomy

Aug. 31, 2014 Rise Set
Actual Time 7:01 AM CDT 7:46 PM CDT
Civil Twilight 6:37 AM CDT 8:10 PM CDT
Nautical Twilight 6:08 AM CDT 8:39 PM CDT
Astronomical Twilight 5:39 AM CDT 9:08 PM CDT
Moon 12:19 PM CDT 11:32 PM CDT
Length of Visible Light 13h 33m
Length of Day
12h 45m
Tomorrow will be 1m 40s shorter.
Waxing Crescent, 27% of the Moon is Illuminated
Today
Waxing Crescent
Sep 2
First Quarter
Sep 8
Full
Sep 15
Last Quarter
Sep 24
New

Today's Extremes

State Highs State Lows

Community

WunderPhotos

Upload Photos

1,748,786 photos uploaded!

Nearby

Snow Depth

Station Depth Elevation
No new snow has been reported.

Earthquake Activity

City Distance Mag. Time & Date
No recent earthquake activity has been reported nearby.
Minimum magnitude displayed is 2.5.

Coastal Water Temperatures

Place Temperature
Seadrift, TX 84.9 °F
Rockport, TX 84.9 °F
USCG Freeport, TX 82.9 °F

Nearby Weather Stations